createdAt,value
2023-01-17T00:00:00.572Z,1.4
2023-01-17T00:01:00.575Z,1.4
2023-01-17T00:02:00.524Z,1.4
2023-01-17T00:03:00.624Z,1.4
2023-01-17T00:04:00.598Z,1.4
2023-01-17T00:05:00.549Z,1.4
2023-01-17T00:06:00.526Z,1.4
2023-01-17T00:07:00.553Z,1.4
2023-01-17T00:08:00.544Z,1.4
2023-01-17T00:09:00.537Z,1.4
2023-01-17T00:10:00.599Z,1.4
2023-01-17T00:11:00.542Z,1.4
2023-01-17T00:12:00.534Z,1.4
2023-01-17T00:13:00.555Z,1.4
2023-01-17T00:14:00.535Z,1.4
2023-01-17T00:15:00.578Z,1.4
2023-01-17T00:16:00.603Z,1.3
2023-01-17T00:17:00.549Z,1.2
2023-01-17T00:18:00.541Z,1.2
2023-01-17T00:19:00.574Z,1.2
2023-01-17T00:20:00.587Z,1.2
2023-01-17T00:21:00.544Z,1.1
2023-01-17T00:22:00.561Z,1.1
2023-01-17T00:23:00.562Z,1.1
2023-01-17T00:24:00.552Z,1.1
2023-01-17T00:25:00.576Z,1.1
2023-01-17T00:26:00.560Z,1.1
2023-01-17T00:27:00.553Z,1.1
2023-01-17T00:28:00.584Z,1.1
2023-01-17T00:29:00.555Z,1.1
2023-01-17T00:30:00.617Z,1.1
2023-01-17T00:31:00.656Z,1.1
2023-01-17T00:32:00.561Z,1
2023-01-17T00:33:00.560Z,1.1
2023-01-17T00:34:00.596Z,1.1
2023-01-17T00:35:00.577Z,1
2023-01-17T00:36:00.560Z,1
2023-01-17T00:37:00.572Z,1.1
2023-01-17T00:38:00.572Z,1.1
2023-01-17T00:39:00.569Z,1.1
2023-01-17T00:40:00.586Z,1.1
2023-01-17T00:41:00.575Z,1.1
2023-01-17T00:42:00.561Z,1.1
2023-01-17T00:43:00.569Z,1.1
2023-01-17T00:44:00.584Z,1.1
2023-01-17T00:45:00.589Z,1.1
2023-01-17T00:46:00.586Z,1.1
2023-01-17T00:47:00.573Z,1.1
2023-01-17T00:48:00.591Z,1.2
2023-01-17T00:49:00.591Z,1.2
2023-01-17T00:50:00.593Z,1.2
2023-01-17T00:51:00.587Z,1.2
2023-01-17T00:52:00.587Z,1.2
2023-01-17T00:53:00.588Z,1.2
2023-01-17T00:54:00.605Z,1.2
2023-01-17T00:55:00.662Z,1.2
2023-01-17T00:56:00.578Z,1.2
2023-01-17T00:57:00.625Z,1.2
2023-01-17T00:58:00.587Z,1.3
2023-01-17T00:59:00.614Z,1.3
2023-01-17T01:00:00.620Z,1.3
2023-01-17T01:01:00.780Z,1.3
2023-01-17T01:02:00.729Z,1.3
2023-01-17T01:03:00.632Z,1.3
2023-01-17T01:04:00.603Z,1.3
2023-01-17T01:05:00.609Z,1.3
2023-01-17T01:06:00.615Z,1.4
2023-01-17T01:07:00.609Z,1.4
2023-01-17T01:08:00.602Z,1.4
2023-01-17T01:09:00.632Z,1.4
2023-01-17T01:10:00.640Z,1.4
2023-01-17T01:11:00.658Z,1.4
2023-01-17T01:12:00.605Z,1.4
2023-01-17T01:13:00.599Z,1.4
2023-01-17T01:14:00.607Z,1.4
2023-01-17T01:15:00.596Z,1.4
2023-01-17T01:16:00.621Z,1.4
2023-01-17T01:17:00.602Z,1.4
2023-01-17T01:18:00.607Z,1.4
2023-01-17T01:19:00.617Z,1.4
2023-01-17T01:20:00.699Z,1.4
2023-01-17T01:21:00.603Z,1.4
2023-01-17T01:22:00.625Z,1.4
2023-01-17T01:23:00.618Z,1.4
2023-01-17T01:24:00.641Z,1.4
2023-01-17T01:25:00.613Z,1.4
2023-01-17T01:26:00.603Z,1.4
2023-01-17T01:27:00.614Z,1.4
2023-01-17T01:28:00.605Z,1.4
2023-01-17T01:29:00.625Z,1.4
2023-01-17T01:30:00.623Z,1.4
2023-01-17T01:31:00.609Z,1.4
2023-01-17T01:32:00.607Z,1.4
2023-01-17T01:33:00.626Z,1.4
2023-01-17T01:34:00.642Z,1.4
2023-01-17T01:35:00.643Z,1.4
2023-01-17T01:36:00.630Z,1.3
2023-01-17T01:37:00.631Z,1.4
2023-01-17T01:38:00.623Z,1.4
2023-01-17T01:39:00.653Z,1.4
2023-01-17T01:40:00.640Z,1.4
2023-01-17T01:41:00.644Z,1.4
2023-01-17T01:42:00.618Z,1.4
2023-01-17T01:43:00.654Z,1.4
2023-01-17T01:44:00.655Z,1.4
2023-01-17T01:45:00.640Z,1.4
2023-01-17T01:46:00.699Z,1.4
2023-01-17T01:47:00.638Z,1.4
2023-01-17T01:48:00.645Z,1.4
2023-01-17T01:49:00.664Z,1.4
2023-01-17T01:50:00.682Z,1.4
2023-01-17T01:51:00.637Z,1.4
2023-01-17T01:52:00.629Z,1.4
2023-01-17T01:53:00.645Z,1.4
2023-01-17T01:54:00.651Z,1.4
2023-01-17T01:55:00.678Z,1.4
2023-01-17T01:56:00.654Z,1.4
2023-01-17T01:57:00.632Z,1.4
2023-01-17T01:58:00.633Z,1.4
2023-01-17T01:59:00.669Z,1.4
2023-01-17T02:00:00.677Z,1.4
2023-01-17T02:01:00.926Z,1.4
2023-01-17T02:02:00.641Z,1.4
2023-01-17T02:03:00.661Z,1.4
2023-01-17T02:04:00.683Z,1.4
2023-01-17T02:05:02.520Z,1.4
2023-01-17T02:06:00.657Z,1.4
2023-01-17T02:07:00.671Z,1.4
2023-01-17T02:08:00.672Z,1.4
2023-01-17T02:09:00.710Z,1.4
2023-01-17T02:10:00.668Z,1.4
2023-01-17T02:11:00.654Z,1.4
2023-01-17T02:12:00.657Z,1.4
2023-01-17T02:13:00.654Z,1.4
2023-01-17T02:14:00.678Z,1.4
2023-01-17T02:15:00.666Z,1.4
2023-01-17T02:16:00.794Z,1.4
2023-01-17T02:17:00.658Z,1.4
2023-01-17T02:18:00.684Z,1.4
2023-01-17T02:19:00.697Z,1.4
2023-01-17T02:20:00.703Z,1.4
2023-01-17T02:21:00.702Z,1.4
2023-01-17T02:22:00.665Z,1.4
2023-01-17T02:23:00.674Z,1.4
2023-01-17T02:24:00.692Z,1.4
2023-01-17T02:25:00.682Z,1.4
2023-01-17T02:26:00.672Z,1.4
2023-01-17T02:27:00.667Z,1.4
2023-01-17T02:28:00.686Z,1.4
2023-01-17T02:29:00.683Z,1.4
2023-01-17T02:30:00.716Z,1.4
2023-01-17T02:31:00.668Z,1.4
2023-01-17T02:32:00.670Z,1.4
2023-01-17T02:33:00.705Z,1.4
2023-01-17T02:34:00.687Z,1.4
2023-01-17T02:35:00.679Z,1.4
2023-01-17T02:36:00.699Z,1.4
2023-01-17T02:37:00.676Z,1.4
2023-01-17T02:38:00.707Z,1.4
2023-01-17T02:39:00.686Z,1.4
2023-01-17T02:40:00.688Z,1.4
2023-01-17T02:41:00.697Z,1.4
2023-01-17T02:42:00.707Z,1.4
2023-01-17T02:43:00.709Z,1.4
2023-01-17T02:44:00.691Z,1.4
2023-01-17T02:45:00.691Z,1.4
2023-01-17T02:46:00.741Z,1.4
2023-01-17T02:47:00.702Z,1.4
2023-01-17T02:48:00.713Z,1.3
2023-01-17T02:49:00.696Z,1.3
2023-01-17T02:50:00.722Z,1.4
2023-01-17T02:51:00.692Z,1.3
2023-01-17T02:52:00.711Z,1.3
2023-01-17T02:53:00.711Z,1.4
2023-01-17T02:54:00.695Z,1.4
2023-01-17T02:55:00.689Z,1.4
2023-01-17T02:56:00.701Z,1.4
2023-01-17T02:57:00.692Z,1.4
2023-01-17T02:58:00.734Z,1.4
2023-01-17T02:59:00.693Z,1.4
2023-01-17T03:00:00.851Z,1.4
2023-01-17T03:01:01.329Z,1.4
2023-01-17T03:02:01.283Z,1.4
2023-01-17T03:03:01.070Z,1.4
2023-01-17T03:04:01.105Z,1.4
2023-01-17T03:05:01.089Z,1.4
2023-01-17T03:06:01.116Z,1.4
2023-01-17T03:07:01.106Z,1.4
2023-01-17T03:08:01.092Z,1.4
2023-01-17T03:09:01.982Z,1.4
2023-01-17T03:10:01.160Z,1.4
2023-01-17T03:11:01.159Z,1.4
2023-01-17T03:12:01.151Z,1.4
2023-01-17T03:13:01.217Z,1.4
2023-01-17T03:14:00.439Z,1.4
2023-01-17T03:15:00.461Z,1.4
2023-01-17T03:16:00.418Z,1.4
2023-01-17T03:17:00.437Z,1.4
2023-01-17T03:18:00.423Z,1.4
2023-01-17T03:19:00.445Z,1.4
2023-01-17T03:20:00.462Z,1.4
2023-01-17T03:21:00.418Z,1.4
2023-01-17T03:22:00.424Z,1.4
2023-01-17T03:23:00.453Z,1.3
2023-01-17T03:24:00.444Z,1.3
2023-01-17T03:25:00.428Z,1.3
2023-01-17T03:26:00.437Z,1.3
2023-01-17T03:27:00.428Z,1.3
2023-01-17T03:28:00.459Z,1.3
2023-01-17T03:29:00.455Z,1.3
2023-01-17T03:30:00.452Z,1.3
2023-01-17T03:31:00.539Z,1.3
2023-01-17T03:32:00.437Z,1.3
2023-01-17T03:33:00.477Z,1.3
2023-01-17T03:34:00.472Z,1.3
2023-01-17T03:35:00.464Z,1.3
2023-01-17T03:36:00.481Z,1.3
2023-01-17T03:37:00.454Z,1.3
2023-01-17T03:38:00.448Z,1.3
2023-01-17T03:39:00.473Z,1.2
2023-01-17T03:40:00.452Z,1.2
2023-01-17T03:41:00.443Z,1.2
2023-01-17T03:42:00.479Z,1.2
2023-01-17T03:43:00.445Z,1.2
2023-01-17T03:44:00.475Z,1.2
2023-01-17T03:45:00.452Z,1.3
2023-01-17T03:46:00.568Z,1.2
2023-01-17T03:47:00.461Z,1.2
2023-01-17T03:48:00.466Z,1.2
2023-01-17T03:49:00.475Z,1.2
2023-01-17T03:50:00.497Z,1.2
2023-01-17T03:51:00.477Z,1.2
2023-01-17T03:52:00.467Z,1.2
2023-01-17T03:53:00.475Z,1.2
2023-01-17T03:54:00.491Z,1.2
2023-01-17T03:55:00.489Z,1.2
2023-01-17T03:56:00.466Z,1.2
2023-01-17T03:57:00.467Z,1.2
2023-01-17T03:58:00.503Z,1.2
2023-01-17T03:59:00.492Z,1.2
2023-01-17T04:00:00.488Z,1.2
2023-01-17T04:01:00.587Z,1.2
2023-01-17T04:02:00.534Z,1.2
2023-01-17T04:03:00.490Z,1.2
2023-01-17T04:04:00.503Z,1.2
2023-01-17T04:05:00.503Z,1.2
2023-01-17T04:06:00.488Z,1.2
2023-01-17T04:07:00.476Z,1.2
2023-01-17T04:08:00.505Z,1.2
2023-01-17T04:09:00.498Z,1.2
2023-01-17T04:10:00.477Z,1.2
2023-01-17T04:11:00.478Z,1.2
2023-01-17T04:12:00.494Z,1.2
2023-01-17T04:13:00.493Z,1.2
2023-01-17T04:14:00.499Z,1.2
2023-01-17T04:15:00.507Z,1.2
2023-01-17T04:16:00.484Z,1.3
2023-01-17T04:17:00.511Z,1.2
2023-01-17T04:18:00.506Z,1.3
2023-01-17T04:19:00.496Z,1.2
2023-01-17T04:20:00.537Z,1.2
2023-01-17T04:21:00.479Z,1.2
2023-01-17T04:22:00.486Z,1.2
2023-01-17T04:23:00.529Z,1.2
2023-01-17T04:24:00.508Z,1.2
2023-01-17T04:25:00.489Z,1.2
2023-01-17T04:26:00.502Z,1.2
2023-01-17T04:27:00.504Z,1.1
2023-01-17T04:28:00.514Z,1.1
2023-01-17T04:29:00.522Z,1.1
2023-01-17T04:30:00.505Z,1
2023-01-17T04:31:00.596Z,1
2023-01-17T04:32:00.511Z,1
2023-01-17T04:33:00.553Z,1
2023-01-17T04:34:00.510Z,1
2023-01-17T04:35:00.518Z,1
2023-01-17T04:36:00.511Z,1
2023-01-17T04:37:00.495Z,0.9
2023-01-17T04:38:00.536Z,0.9
2023-01-17T04:39:00.527Z,1
2023-01-17T04:40:00.528Z,0.9
2023-01-17T04:41:00.509Z,1
2023-01-17T04:42:00.515Z,1
2023-01-17T04:43:00.543Z,1
2023-01-17T04:44:00.548Z,1
2023-01-17T04:45:00.523Z,1
2023-01-17T04:46:00.546Z,1
2023-01-17T04:47:00.516Z,1
2023-01-17T04:48:00.529Z,1
2023-01-17T04:49:00.561Z,1
2023-01-17T04:50:00.597Z,1
2023-01-17T04:51:00.543Z,0.9
2023-01-17T04:52:00.515Z,1
2023-01-17T04:53:00.516Z,0.9
2023-01-17T04:54:00.545Z,0.9
2023-01-17T04:55:00.530Z,0.9
2023-01-17T04:56:00.519Z,0.9
2023-01-17T04:57:00.525Z,0.9
2023-01-17T04:58:00.548Z,0.9
2023-01-17T04:59:00.536Z,0.8
2023-01-17T05:00:00.540Z,0.8
2023-01-17T05:01:00.553Z,0.8
2023-01-17T05:02:00.601Z,0.8
2023-01-17T05:03:00.618Z,0.8
2023-01-17T05:04:00.532Z,0.8
2023-01-17T05:05:00.560Z,0.7
2023-01-17T05:06:00.554Z,0.7
2023-01-17T05:07:00.554Z,0.6
2023-01-17T05:08:00.544Z,0.6
2023-01-17T05:09:00.527Z,0.5
2023-01-17T05:10:00.549Z,0.4
2023-01-17T05:11:00.532Z,0.4
2023-01-17T05:12:00.536Z,0.3
2023-01-17T05:13:00.563Z,0.2
2023-01-17T05:14:00.539Z,0.1
2023-01-17T05:15:00.561Z,0.1
2023-01-17T05:16:00.575Z,0
2023-01-17T05:17:00.553Z,0
2023-01-17T05:18:00.588Z,-0.1
2023-01-17T05:19:00.543Z,-0.2
2023-01-17T05:20:00.579Z,-0.2
2023-01-17T05:21:00.547Z,-0.2
2023-01-17T05:22:00.544Z,-0.2
2023-01-17T05:23:00.561Z,-0.3
2023-01-17T05:24:00.542Z,-0.3
2023-01-17T05:25:00.591Z,-0.3
2023-01-17T05:26:00.565Z,-0.3
2023-01-17T05:27:00.548Z,-0.3
2023-01-17T05:28:00.563Z,-0.4
2023-01-17T05:29:00.571Z,-0.4
2023-01-17T05:30:00.595Z,-0.4
2023-01-17T05:31:00.599Z,-0.5
2023-01-17T05:32:00.556Z,-0.5
2023-01-17T05:33:00.560Z,-0.6
2023-01-17T05:34:00.562Z,-0.6
2023-01-17T05:35:00.595Z,-0.6
2023-01-17T05:36:00.562Z,-0.7
2023-01-17T05:37:00.571Z,-0.8
2023-01-17T05:38:00.578Z,-0.9
2023-01-17T05:39:00.565Z,-0.9
2023-01-17T05:40:00.607Z,-1
2023-01-17T05:41:00.578Z,-1.1
2023-01-17T05:42:00.585Z,-1.1
2023-01-17T05:43:00.564Z,-1.2
2023-01-17T05:44:00.564Z,-1.2
2023-01-17T05:45:00.604Z,-1.2
2023-01-17T05:46:00.694Z,-1.2
2023-01-17T05:47:00.563Z,-1.2
2023-01-17T05:48:00.581Z,-1.3
2023-01-17T05:49:00.573Z,-1.3
2023-01-17T05:50:00.613Z,-1.4
2023-01-17T05:51:00.572Z,-1.4
2023-01-17T05:52:00.591Z,-1.4
2023-01-17T05:53:00.584Z,-1.4
2023-01-17T05:54:00.591Z,-1.5
2023-01-17T05:55:00.605Z,-1.6
2023-01-17T05:56:00.582Z,-1.6
2023-01-17T05:57:00.620Z,-1.6
2023-01-17T05:58:00.591Z,-1.7
2023-01-17T05:59:00.584Z,-1.7
2023-01-17T06:00:00.631Z,-1.8
2023-01-17T06:01:00.663Z,-1.8
2023-01-17T06:02:00.612Z,-1.8
2023-01-17T06:03:00.617Z,-1.9
2023-01-17T06:04:00.590Z,-1.9
2023-01-17T06:05:03.292Z,-2
2023-01-17T06:06:00.598Z,-2
2023-01-17T06:07:00.598Z,-2.1
2023-01-17T06:08:00.611Z,-2.1
2023-01-17T06:09:00.594Z,-2.1
2023-01-17T06:10:00.674Z,-2.1
2023-01-17T06:11:00.597Z,-2.1
2023-01-17T06:12:00.602Z,-2.1
2023-01-17T06:13:00.616Z,-2.1
2023-01-17T06:14:00.597Z,-2.1
2023-01-17T06:15:00.622Z,-2.1
2023-01-17T06:16:00.654Z,-2.1
2023-01-17T06:17:00.599Z,-2.2
2023-01-17T06:18:00.614Z,-2.2
2023-01-17T06:19:00.605Z,-2.2
2023-01-17T06:20:00.648Z,-2.2
2023-01-17T06:21:00.633Z,-2.2
2023-01-17T06:22:00.609Z,-2.2
2023-01-17T06:23:00.615Z,-2.2
2023-01-17T06:24:02.659Z,-2.3
2023-01-17T06:25:00.655Z,-2.3
2023-01-17T06:26:00.626Z,-2.3
2023-01-17T06:27:00.622Z,-2.3
2023-01-17T06:28:00.611Z,-2.3
2023-01-17T06:29:00.630Z,-2.3
2023-01-17T06:30:00.668Z,-2.3
2023-01-17T06:31:00.683Z,-2.3
2023-01-17T06:32:01.743Z,-2.2
2023-01-17T06:33:00.613Z,-2.2
2023-01-17T06:34:00.615Z,-2.2
2023-01-17T06:35:00.637Z,-2.2
2023-01-17T06:36:00.628Z,-2.2
2023-01-17T06:37:00.621Z,-2.2
2023-01-17T06:38:00.672Z,-2.2
2023-01-17T06:39:00.623Z,-2.1
2023-01-17T06:40:00.675Z,-2.1
2023-01-17T06:41:00.698Z,-2.1
2023-01-17T06:42:00.630Z,-2
2023-01-17T06:43:00.625Z,-2
2023-01-17T06:44:00.624Z,-2
2023-01-17T06:45:00.699Z,-2
2023-01-17T06:46:00.649Z,-1.9
2023-01-17T06:47:00.632Z,-1.9
2023-01-17T06:48:00.645Z,-1.9
2023-01-17T06:49:00.634Z,-1.9
2023-01-17T06:50:00.741Z,-1.9
2023-01-17T06:51:00.678Z,-1.9
2023-01-17T06:52:00.693Z,-1.8
2023-01-17T06:53:00.648Z,-1.8
2023-01-17T06:54:00.680Z,-1.8
2023-01-17T06:55:00.686Z,-1.8
2023-01-17T06:56:00.667Z,-1.7
2023-01-17T06:57:00.660Z,-1.7
2023-01-17T06:58:00.649Z,-1.7
2023-01-17T06:59:00.660Z,-1.6
2023-01-17T07:00:00.718Z,-1.6
2023-01-17T07:01:00.745Z,-1.6
2023-01-17T07:02:00.645Z,-1.6
2023-01-17T07:03:00.657Z,-1.5
2023-01-17T07:04:00.763Z,-1.5
2023-01-17T07:05:00.789Z,-1.5
2023-01-17T07:06:00.664Z,-1.5
2023-01-17T07:07:00.669Z,-1.5
2023-01-17T07:08:00.655Z,-1.5
2023-01-17T07:09:00.656Z,-1.4
2023-01-17T07:10:00.790Z,-1.5
2023-01-17T07:11:00.682Z,-1.4
2023-01-17T07:12:00.651Z,-1.4
2023-01-17T07:13:00.739Z,-1.4
2023-01-17T07:14:00.685Z,-1.4
2023-01-17T07:15:00.679Z,-1.4
2023-01-17T07:16:00.768Z,-1.4
2023-01-17T07:17:00.681Z,-1.4
2023-01-17T07:18:00.845Z,-1.4
2023-01-17T07:19:00.688Z,-1.4
2023-01-17T07:20:00.671Z,-1.4
2023-01-17T07:21:00.836Z,-1.4
2023-01-17T07:22:00.719Z,-1.4
2023-01-17T07:23:00.768Z,-1.4
2023-01-17T07:24:00.880Z,-1.4
2023-01-17T07:25:00.793Z,-1.4
2023-01-17T07:26:00.710Z,-1.4
2023-01-17T07:27:00.871Z,-1.4
2023-01-17T07:28:00.774Z,-1.4
2023-01-17T07:29:00.777Z,-1.4
2023-01-17T07:30:00.824Z,-1.4
2023-01-17T07:31:00.865Z,-1.4
2023-01-17T07:32:00.853Z,-1.4
2023-01-17T07:33:00.810Z,-1.4
2023-01-17T07:34:00.849Z,-1.3
2023-01-17T07:35:00.891Z,-1.3
2023-01-17T07:36:01.613Z,-1.2
2023-01-17T07:37:00.849Z,-1.2
2023-01-17T07:38:00.801Z,-1.2
2023-01-17T07:39:00.833Z,-1.1
2023-01-17T07:40:00.795Z,-1.1
2023-01-17T07:41:00.935Z,-1.1
2023-01-17T07:42:00.869Z,-1.1
2023-01-17T07:43:00.810Z,-1.1
2023-01-17T07:44:00.927Z,-1
2023-01-17T07:45:00.909Z,-1
2023-01-17T07:46:02.164Z,-0.9
2023-01-17T07:47:00.911Z,-0.9
2023-01-17T07:48:00.835Z,-0.9
2023-01-17T07:49:00.838Z,-0.9
2023-01-17T07:50:00.778Z,-0.9
2023-01-17T07:51:00.788Z,-0.8
2023-01-17T07:52:00.911Z,-0.8
2023-01-17T07:53:00.765Z,-0.8
2023-01-17T07:54:01.112Z,-0.8
2023-01-17T07:55:00.776Z,-0.8
2023-01-17T07:56:00.838Z,-0.8
2023-01-17T07:57:00.743Z,-0.8
2023-01-17T07:58:02.956Z,-0.8
2023-01-17T07:59:00.834Z,-0.7
2023-01-17T08:00:01.329Z,-0.7
2023-01-17T08:01:00.913Z,-0.7
2023-01-17T08:02:01.350Z,-0.7
2023-01-17T08:03:00.736Z,-0.7
2023-01-17T08:04:00.801Z,-0.7
2023-01-17T08:05:01.361Z,-0.7
2023-01-17T08:06:01.165Z,-0.8
2023-01-17T08:07:00.748Z,-0.8
2023-01-17T08:08:00.729Z,-0.8
2023-01-17T08:09:00.734Z,-0.8
2023-01-17T08:10:00.833Z,-0.8
2023-01-17T08:11:01.075Z,-0.8
2023-01-17T08:12:01.242Z,-0.8
2023-01-17T08:13:00.717Z,-0.8
2023-01-17T08:14:00.756Z,-0.8
2023-01-17T08:15:00.804Z,-0.7
2023-01-17T08:16:00.768Z,-0.7
2023-01-17T08:17:01.309Z,-0.7
2023-01-17T08:18:00.844Z,-0.6
2023-01-17T08:19:00.750Z,-0.6
2023-01-17T08:20:00.751Z,-0.6
2023-01-17T08:21:00.728Z,-0.6
2023-01-17T08:22:00.767Z,-0.6
2023-01-17T08:23:00.744Z,-0.6
2023-01-17T08:24:00.739Z,-0.6
2023-01-17T08:25:00.744Z,-0.6
2023-01-17T08:26:00.741Z,-0.6
2023-01-17T08:27:00.753Z,-0.5
2023-01-17T08:28:00.751Z,-0.5
2023-01-17T08:29:00.911Z,-0.4
2023-01-17T08:30:00.774Z,-0.4
2023-01-17T08:31:00.749Z,-0.4
2023-01-17T08:32:00.746Z,-0.4
2023-01-17T08:33:00.755Z,-0.4
2023-01-17T08:34:00.758Z,-0.4
2023-01-17T08:35:00.750Z,-0.3
2023-01-17T08:36:00.769Z,-0.3
2023-01-17T08:37:00.748Z,-0.2
2023-01-17T08:38:00.739Z,-0.2
2023-01-17T08:39:00.766Z,-0.2
2023-01-17T08:40:00.771Z,-0.1
2023-01-17T08:41:00.783Z,-0.1
2023-01-17T08:42:00.864Z,-0.1
2023-01-17T08:43:00.757Z,0
2023-01-17T08:44:00.756Z,0
2023-01-17T08:45:00.783Z,0
2023-01-17T08:46:00.922Z,0.1
2023-01-17T08:47:00.760Z,0.1
2023-01-17T08:48:00.759Z,0.1
2023-01-17T08:49:00.776Z,0.2
2023-01-17T08:50:00.768Z,0.2
2023-01-17T08:51:00.782Z,0.2
2023-01-17T08:52:00.776Z,0.2
2023-01-17T08:53:01.408Z,0.2
2023-01-17T08:54:00.755Z,0.2
2023-01-17T08:55:00.818Z,0.2
2023-01-17T08:56:00.778Z,0.2
2023-01-17T08:57:00.799Z,0.2
2023-01-17T08:58:00.769Z,0.3
2023-01-17T08:59:00.793Z,0.3
2023-01-17T09:00:00.795Z,0.3
2023-01-17T09:01:00.884Z,0.4
2023-01-17T09:02:00.946Z,0.4
2023-01-17T09:03:01.110Z,0.4
2023-01-17T09:04:00.820Z,0.4
2023-01-17T09:05:00.817Z,0.4
2023-01-17T09:06:00.794Z,0.5
2023-01-17T09:07:00.794Z,0.5
2023-01-17T09:08:00.776Z,0.5
2023-01-17T09:09:00.772Z,0.6
2023-01-17T09:10:00.826Z,0.6
2023-01-17T09:11:00.799Z,0.6
2023-01-17T09:12:00.791Z,0.6
2023-01-17T09:13:00.781Z,0.7
2023-01-17T09:14:00.767Z,0.7
2023-01-17T09:15:00.764Z,0.8
2023-01-17T09:16:01.229Z,0.8
2023-01-17T09:17:01.230Z,0.8
2023-01-17T09:18:00.636Z,0.8
2023-01-17T09:19:00.627Z,0.9
2023-01-17T09:20:00.626Z,0.9
2023-01-17T09:21:00.580Z,0.9
2023-01-17T09:22:00.524Z,0.9
2023-01-17T09:23:00.499Z,1
2023-01-17T09:24:00.482Z,1
2023-01-17T09:25:00.465Z,1.1
2023-01-17T09:26:00.435Z,1.1
2023-01-17T09:27:00.403Z,1.1
2023-01-17T09:28:00.371Z,1.1
2023-01-17T09:29:00.390Z,1.2
2023-01-17T09:30:00.415Z,1.1
2023-01-17T09:31:00.438Z,1.2
2023-01-17T09:32:00.383Z,1.2
2023-01-17T09:33:00.367Z,1.2
2023-01-17T09:34:00.405Z,1.1
2023-01-17T09:35:00.380Z,1.1
2023-01-17T09:36:00.391Z,1.1
2023-01-17T09:37:00.409Z,1.1
2023-01-17T09:38:00.387Z,1.1
2023-01-17T09:39:00.395Z,1.1
2023-01-17T09:40:00.436Z,1.1
2023-01-17T09:41:00.409Z,1.2
2023-01-17T09:42:00.402Z,1.1
2023-01-17T09:43:00.382Z,1.2
2023-01-17T09:44:00.661Z,1.2
2023-01-17T09:45:00.389Z,1.2
2023-01-17T09:46:00.423Z,1.2
2023-01-17T09:47:00.461Z,1.2
2023-01-17T09:48:00.389Z,1.2
2023-01-17T09:49:00.385Z,1.2
2023-01-17T09:50:00.409Z,1.2
2023-01-17T09:51:00.408Z,1.3
2023-01-17T09:52:00.409Z,1.3
2023-01-17T09:53:00.408Z,1.3
2023-01-17T09:54:00.405Z,1.4
2023-01-17T09:55:00.426Z,1.3
2023-01-17T09:56:00.407Z,1.4
2023-01-17T09:57:00.415Z,1.4
2023-01-17T09:58:00.418Z,1.3
2023-01-17T09:59:00.397Z,1.3
2023-01-17T10:00:03.457Z,1.3
2023-01-17T10:01:00.504Z,1.4
2023-01-17T10:02:00.690Z,1.4
2023-01-17T10:05:00.510Z,1.5
2023-01-17T10:06:00.411Z,1.6
2023-01-17T10:07:00.449Z,1.6
2023-01-17T10:08:01.245Z,1.6
2023-01-17T10:09:00.407Z,1.7
2023-01-17T10:10:00.448Z,1.7
2023-01-17T10:11:00.917Z,1.8
2023-01-17T10:12:00.409Z,1.8
2023-01-17T10:13:00.412Z,1.9
2023-01-17T10:14:00.430Z,1.9
2023-01-17T10:15:00.424Z,2
2023-01-17T10:16:00.947Z,2
2023-01-17T10:17:00.427Z,2.1
2023-01-17T10:18:00.466Z,2.1
2023-01-17T10:19:00.414Z,2.2
2023-01-17T10:20:00.416Z,2.2
2023-01-17T10:21:00.411Z,2.2
2023-01-17T10:22:00.449Z,2.2
2023-01-17T10:23:00.421Z,2.2
2023-01-17T10:24:00.416Z,2.3
2023-01-17T10:25:00.437Z,2.3
2023-01-17T10:26:00.410Z,2.4
2023-01-17T10:27:00.428Z,2.4
2023-01-17T10:28:00.427Z,2.4
2023-01-17T10:29:00.433Z,2.4
2023-01-17T10:30:00.419Z,2.5
2023-01-17T10:31:00.458Z,2.5
2023-01-17T10:32:00.435Z,2.5
2023-01-17T10:33:00.439Z,2.5
2023-01-17T10:34:00.439Z,2.5
2023-01-17T10:35:00.429Z,2.5
2023-01-17T10:36:00.448Z,2.5
2023-01-17T10:37:00.443Z,2.5
2023-01-17T10:38:00.440Z,2.5
2023-01-17T10:39:00.428Z,2.5
2023-01-17T10:40:00.454Z,2.5
2023-01-17T10:41:00.469Z,2.6
2023-01-17T10:42:00.449Z,2.6
2023-01-17T10:43:00.455Z,2.6
2023-01-17T10:44:00.442Z,2.6
2023-01-17T10:45:00.451Z,2.6
2023-01-17T10:46:00.472Z,2.6
2023-01-17T10:47:00.473Z,2.7
2023-01-17T10:48:00.452Z,2.7
2023-01-17T10:49:00.443Z,2.8
2023-01-17T10:50:00.443Z,2.7
2023-01-17T10:51:00.881Z,2.8
2023-01-17T10:52:00.690Z,2.8
2023-01-17T10:53:00.445Z,2.8
2023-01-17T10:54:01.871Z,2.8
2023-01-17T10:55:00.458Z,2.8
2023-01-17T10:56:00.794Z,2.8
2023-01-17T10:57:00.470Z,2.8
2023-01-17T10:58:00.465Z,2.7
2023-01-17T10:59:00.460Z,2.7
2023-01-17T11:00:00.476Z,2.7
2023-01-17T11:01:00.567Z,2.8
2023-01-17T11:02:00.566Z,2.8
2023-01-17T11:03:00.499Z,2.8
2023-01-17T11:04:00.506Z,2.8
2023-01-17T11:05:00.466Z,2.8
2023-01-17T11:06:00.456Z,2.8
2023-01-17T11:07:00.472Z,2.9
2023-01-17T11:08:00.460Z,2.9
2023-01-17T11:09:00.480Z,2.9
2023-01-17T11:10:00.482Z,2.9
2023-01-17T11:11:00.471Z,2.9
2023-01-17T11:12:00.487Z,2.8
2023-01-17T11:13:00.477Z,2.8
2023-01-17T11:14:00.474Z,2.8
2023-01-17T11:15:00.466Z,2.8
2023-01-17T11:16:00.528Z,2.7
2023-01-17T11:17:00.496Z,2.7
2023-01-17T11:18:00.486Z,2.6
2023-01-17T11:19:00.482Z,2.5
2023-01-17T11:20:00.483Z,2.6
2023-01-17T11:21:00.471Z,2.6
2023-01-17T11:22:00.494Z,2.7
2023-01-17T11:23:00.468Z,2.8
2023-01-17T11:24:00.500Z,2.8
2023-01-17T11:25:00.502Z,2.8
2023-01-17T11:26:00.475Z,2.8
2023-01-17T11:27:00.499Z,2.8
2023-01-17T11:28:00.507Z,2.9
2023-01-17T11:29:00.479Z,2.9
2023-01-17T11:30:00.863Z,3
2023-01-17T11:31:01.107Z,3.1
2023-01-17T11:32:00.495Z,3.1
2023-01-17T11:33:00.489Z,3.2
2023-01-17T11:34:00.495Z,3.2
2023-01-17T11:35:00.489Z,3.2
2023-01-17T11:36:00.489Z,3.2
2023-01-17T11:37:00.507Z,3.2
2023-01-17T11:38:00.490Z,3.2
2023-01-17T11:39:00.489Z,3.2
2023-01-17T11:40:00.489Z,3.2
2023-01-17T11:41:00.897Z,3.2
2023-01-17T11:42:01.005Z,3.2
2023-01-17T11:43:00.978Z,3.2
2023-01-17T11:44:00.500Z,3.1
2023-01-17T11:45:00.833Z,3.1
2023-01-17T11:46:01.076Z,3.1
2023-01-17T11:47:00.512Z,3.1
2023-01-17T11:48:00.514Z,3.1
2023-01-17T11:49:00.512Z,3.1
2023-01-17T11:50:00.523Z,3.2
2023-01-17T11:51:00.502Z,3.2
2023-01-17T11:52:00.524Z,3.2
2023-01-17T11:53:00.514Z,3.2
2023-01-17T11:54:00.507Z,3.2
2023-01-17T11:55:00.520Z,3.2
2023-01-17T11:56:00.497Z,3.2
2023-01-17T11:57:00.525Z,3.3
2023-01-17T11:58:00.521Z,3.3
2023-01-17T11:59:00.541Z,3.4
2023-01-17T12:00:00.525Z,3.4
2023-01-17T12:01:00.557Z,3.4
2023-01-17T12:02:00.539Z,3.4
2023-01-17T12:03:00.510Z,3.4
2023-01-17T12:04:00.578Z,3.4
2023-01-17T12:05:00.610Z,3.5
2023-01-17T12:06:00.515Z,3.4
2023-01-17T12:07:00.529Z,3.4
2023-01-17T12:08:00.922Z,3.4
2023-01-17T12:09:00.995Z,3.4
2023-01-17T12:10:00.517Z,3.3
2023-01-17T12:11:00.526Z,3.3
2023-01-17T12:12:01.103Z,3.3
2023-01-17T12:13:00.955Z,3.4
2023-01-17T12:14:01.127Z,3.4
2023-01-17T12:15:00.967Z,3.4
2023-01-17T12:16:00.641Z,3.3
2023-01-17T12:17:00.548Z,3.3
2023-01-17T12:18:00.530Z,3.3
2023-01-17T12:19:00.580Z,3.2
2023-01-17T12:20:00.534Z,3.2
2023-01-17T12:21:00.559Z,3.2
2023-01-17T12:22:00.534Z,3.2
2023-01-17T12:23:00.535Z,3.2
2023-01-17T12:24:00.548Z,3.2
2023-01-17T12:25:00.544Z,3.3
2023-01-17T12:26:00.556Z,3.3
2023-01-17T12:27:00.541Z,3.3
2023-01-17T12:28:00.558Z,3.3
2023-01-17T12:29:00.542Z,3.3
2023-01-17T12:30:00.578Z,3.4
2023-01-17T12:31:00.630Z,3.3
2023-01-17T12:32:00.549Z,3.4
2023-01-17T12:33:00.559Z,3.3
2023-01-17T12:34:00.551Z,3.4
2023-01-17T12:35:00.671Z,3.4
2023-01-17T12:36:00.561Z,3.3
2023-01-17T12:37:00.567Z,3.3
2023-01-17T12:38:05.187Z,3.2
2023-01-17T12:39:00.545Z,3.2
2023-01-17T12:40:00.571Z,3.1
2023-01-17T12:41:00.590Z,3.1
2023-01-17T12:42:00.557Z,3.1
2023-01-17T12:43:00.566Z,3.1
2023-01-17T12:44:00.554Z,3.1
2023-01-17T12:45:00.571Z,3.1
2023-01-17T12:46:00.575Z,3.1
2023-01-17T12:47:00.566Z,3.1
2023-01-17T12:48:00.554Z,3.1
2023-01-17T12:49:00.555Z,3.1
2023-01-17T12:50:00.580Z,3
2023-01-17T12:51:00.581Z,3
2023-01-17T12:52:00.584Z,3
2023-01-17T12:53:00.558Z,2.9
2023-01-17T12:54:00.572Z,2.9
2023-01-17T12:55:00.586Z,2.9
2023-01-17T12:56:00.588Z,2.9
2023-01-17T12:57:00.568Z,2.9
2023-01-17T12:58:00.584Z,2.9
2023-01-17T12:59:00.565Z,2.9
2023-01-17T13:00:00.608Z,2.9
2023-01-17T13:01:00.727Z,2.8
2023-01-17T13:02:00.748Z,2.8
2023-01-17T13:03:00.587Z,2.8
2023-01-17T13:04:00.591Z,2.8
2023-01-17T13:05:00.634Z,2.8
2023-01-17T13:06:00.595Z,2.8
2023-01-17T13:07:00.595Z,2.8
2023-01-17T13:08:00.595Z,2.8
2023-01-17T13:09:00.575Z,2.8
2023-01-17T13:10:00.586Z,2.8
2023-01-17T13:11:00.610Z,2.8
2023-01-17T13:12:00.600Z,2.8
2023-01-17T13:13:00.600Z,2.8
2023-01-17T13:14:00.601Z,2.8
2023-01-17T13:15:00.609Z,2.8
2023-01-17T13:16:00.671Z,2.8
2023-01-17T13:17:00.974Z,2.8
2023-01-17T13:18:01.148Z,2.8
2023-01-17T13:19:00.892Z,2.8
2023-01-17T13:20:00.634Z,2.8
2023-01-17T13:21:00.590Z,2.7
2023-01-17T13:22:00.601Z,2.7
2023-01-17T13:23:00.597Z,2.7
2023-01-17T13:24:00.601Z,2.7
2023-01-17T13:25:00.623Z,2.7
2023-01-17T13:26:00.619Z,2.7
2023-01-17T13:27:00.628Z,2.6
2023-01-17T13:28:00.619Z,2.6
2023-01-17T13:29:00.609Z,2.6
2023-01-17T13:30:00.621Z,2.6
2023-01-17T13:31:00.909Z,2.6
2023-01-17T13:32:00.623Z,2.6
2023-01-17T13:33:00.607Z,2.6
2023-01-17T13:34:00.607Z,2.6
2023-01-17T13:35:01.720Z,2.6
2023-01-17T13:36:00.624Z,2.6
2023-01-17T13:37:00.607Z,2.5
2023-01-17T13:38:00.611Z,2.5
2023-01-17T13:39:00.629Z,2.5
2023-01-17T13:40:00.629Z,2.6
2023-01-17T13:41:00.645Z,2.6
2023-01-17T13:42:00.631Z,2.6
2023-01-17T13:43:00.637Z,2.6
2023-01-17T13:44:00.618Z,2.6